createdAt,value
2019-03-29T00:00:06.452Z,994.48
2019-03-29T00:01:05.123Z,994.37
2019-03-29T00:02:05.275Z,994.37
2019-03-29T00:03:10.266Z,994.34
2019-03-29T00:04:04.705Z,994.37
2019-03-29T00:05:04.895Z,994.29
2019-03-29T00:06:04.907Z,994.43
2019-03-29T00:07:04.967Z,994.43
2019-03-29T00:08:05.455Z,994.37
2019-03-29T00:09:05.063Z,994.37
2019-03-29T00:10:05.265Z,994.43
2019-03-29T00:11:04.705Z,994.43
2019-03-29T00:12:05.550Z,994.43
2019-03-29T00:13:05.353Z,994.37
2019-03-29T00:14:04.482Z,994.54
2019-03-29T00:15:04.899Z,994.49
2019-03-29T00:16:04.811Z,994.37
2019-03-29T00:17:05.413Z,994.43
2019-03-29T00:18:04.929Z,994.29
2019-03-29T00:19:05.292Z,994.46
2019-03-29T00:20:06.754Z,994.31
2019-03-29T00:21:05.386Z,994.34
2019-03-29T00:22:05.596Z,994.37
2019-03-29T00:23:05.285Z,994.37
2019-03-29T00:24:07.574Z,994.34
2019-03-29T00:25:05.266Z,994.43
2019-03-29T00:26:04.685Z,994.43
2019-03-29T00:27:05.241Z,994.43
2019-03-29T00:28:04.852Z,994.51
2019-03-29T00:29:04.905Z,994.31
2019-03-29T00:30:04.965Z,994.46
2019-03-29T00:31:05.575Z,994.46
2019-03-29T00:32:05.922Z,994.57
2019-03-29T00:33:05.340Z,994.40
2019-03-29T00:34:05.460Z,994.37
2019-03-29T00:35:04.612Z,994.49
2019-03-29T00:36:05.194Z,994.32
2019-03-29T00:37:05.171Z,994.37
2019-03-29T00:38:04.812Z,994.49
2019-03-29T00:39:04.910Z,994.37
2019-03-29T00:40:05.173Z,994.32
2019-03-29T00:41:05.624Z,994.43
2019-03-29T00:42:05.064Z,994.43
2019-03-29T00:43:10.232Z,994.51
2019-03-29T00:44:04.682Z,994.29
2019-03-29T00:45:04.613Z,994.32
2019-03-29T00:46:05.400Z,994.34
2019-03-29T00:47:04.649Z,994.40
2019-03-29T00:48:05.137Z,994.29
2019-03-29T00:49:04.616Z,994.40
2019-03-29T00:50:05.357Z,994.32
2019-03-29T00:51:05.001Z,994.40
2019-03-29T00:52:04.755Z,994.37
2019-03-29T00:53:05.066Z,994.29
2019-03-29T00:54:05.311Z,994.46
2019-03-29T00:55:05.304Z,994.37
2019-03-29T00:56:04.834Z,994.37
2019-03-29T00:57:05.613Z,994.29
2019-03-29T00:58:04.750Z,994.34
2019-03-29T00:59:04.860Z,994.29
2019-03-29T01:00:05.335Z,994.34
2019-03-29T01:01:04.678Z,994.29
2019-03-29T01:02:04.694Z,994.34
2019-03-29T01:03:05.166Z,994.35
2019-03-29T01:04:05.154Z,994.35
2019-03-29T01:05:04.742Z,994.29
2019-03-29T01:06:05.477Z,994.49
2019-03-29T01:07:05.291Z,994.37
2019-03-29T01:08:10.369Z,994.29
2019-03-29T01:09:05.305Z,994.29
2019-03-29T01:10:05.352Z,994.20
2019-03-29T01:11:04.809Z,994.35
2019-03-29T01:12:04.974Z,994.40
2019-03-29T01:13:05.520Z,994.40
2019-03-29T01:14:05.017Z,994.26
2019-03-29T01:15:05.018Z,994.20
2019-03-29T01:16:05.104Z,994.40
2019-03-29T01:17:05.462Z,994.40
2019-03-29T01:18:04.759Z,994.26
2019-03-29T01:19:04.621Z,994.20
2019-03-29T01:20:05.060Z,994.32
2019-03-29T01:21:04.694Z,994.37
2019-03-29T01:22:06.244Z,994.26
2019-03-29T01:23:04.722Z,994.32
2019-03-29T01:24:05.476Z,994.32
2019-03-29T01:25:05.460Z,994.23
2019-03-29T01:26:04.536Z,994.23
2019-03-29T01:27:04.997Z,994.20
2019-03-29T01:28:05.088Z,994.09
2019-03-29T01:29:05.283Z,994.15
2019-03-29T01:30:05.318Z,994.20
2019-03-29T01:31:05.563Z,994.18
2019-03-29T01:32:04.642Z,994.20
2019-03-29T01:33:05.143Z,994.26
2019-03-29T01:34:04.784Z,994.09
2019-03-29T01:35:04.821Z,994.01
2019-03-29T01:36:05.173Z,994.06
2019-03-29T01:37:05.300Z,994.06
2019-03-29T01:38:05.379Z,994.18
2019-03-29T01:39:04.781Z,994.06
2019-03-29T01:40:04.800Z,993.92
2019-03-29T01:41:05.159Z,994.06
2019-03-29T01:42:05.250Z,994.06
2019-03-29T01:43:10.410Z,993.89
2019-03-29T01:44:04.880Z,994.01
2019-03-29T01:45:04.941Z,993.98
2019-03-29T01:46:05.372Z,994.18
2019-03-29T01:47:04.759Z,993.95
2019-03-29T01:48:05.265Z,993.95
2019-03-29T01:49:05.404Z,994.09
2019-03-29T01:50:04.963Z,993.98
2019-03-29T01:51:05.466Z,994.01
2019-03-29T01:52:04.919Z,994.01
2019-03-29T01:53:04.915Z,993.95
2019-03-29T01:54:04.957Z,993.98
2019-03-29T01:55:04.643Z,993.95
2019-03-29T01:56:04.722Z,993.95
2019-03-29T01:57:04.750Z,994.06
2019-03-29T01:58:04.818Z,993.98
2019-03-29T01:59:05.159Z,993.95
2019-03-29T02:00:05.316Z,993.95
2019-03-29T02:01:05.281Z,994.09
2019-03-29T02:02:04.807Z,993.89
2019-03-29T02:03:05.511Z,993.98
2019-03-29T02:04:07.927Z,994.01
2019-03-29T02:05:04.818Z,993.86
2019-03-29T02:06:04.990Z,993.98
2019-03-29T02:07:05.187Z,993.98
2019-03-29T02:08:05.582Z,993.86
2019-03-29T02:09:05.645Z,993.98
2019-03-29T02:10:04.521Z,993.84
2019-03-29T02:11:04.807Z,993.95
2019-03-29T02:12:10.389Z,993.95
2019-03-29T02:13:04.810Z,994.01
2019-03-29T02:14:04.956Z,993.95
2019-03-29T02:15:05.492Z,993.98
2019-03-29T02:16:04.584Z,993.92
2019-03-29T02:17:04.764Z,993.95
2019-03-29T02:18:05.025Z,993.84
2019-03-29T02:19:06.324Z,993.92
2019-03-29T02:20:04.952Z,993.95
2019-03-29T02:21:05.005Z,993.87
2019-03-29T02:22:04.547Z,994.04
2019-03-29T02:23:04.722Z,993.95
2019-03-29T02:24:04.888Z,993.89
2019-03-29T02:25:05.271Z,993.95
2019-03-29T02:26:04.797Z,994.01
2019-03-29T02:27:05.495Z,993.87
2019-03-29T02:28:05.578Z,993.98
2019-03-29T02:29:05.030Z,993.78
2019-03-29T02:30:05.624Z,993.92
2019-03-29T02:31:04.683Z,993.89
2019-03-29T02:32:05.316Z,993.87
2019-03-29T02:33:05.263Z,993.87
2019-03-29T02:34:05.372Z,993.95
2019-03-29T02:35:04.476Z,993.72
2019-03-29T02:36:07.144Z,993.72
2019-03-29T02:37:04.880Z,993.84
2019-03-29T02:38:04.965Z,993.81
2019-03-29T02:39:04.654Z,993.78
2019-03-29T02:40:04.683Z,993.81
2019-03-29T02:41:05.324Z,993.75
2019-03-29T02:42:05.319Z,993.72
2019-03-29T02:43:04.586Z,993.87
2019-03-29T02:44:04.838Z,993.87
2019-03-29T02:45:04.859Z,993.70
2019-03-29T02:46:10.141Z,993.87
2019-03-29T02:47:04.621Z,993.70
2019-03-29T02:48:05.196Z,993.50
2019-03-29T02:49:05.420Z,993.67
2019-03-29T02:50:05.491Z,993.81
2019-03-29T02:51:05.589Z,993.78
2019-03-29T02:52:05.410Z,993.70
2019-03-29T02:53:04.930Z,993.87
2019-03-29T02:54:05.424Z,993.70
2019-03-29T02:55:05.008Z,993.67
2019-03-29T02:56:04.979Z,993.67
2019-03-29T02:57:04.523Z,993.67
2019-03-29T02:58:04.695Z,993.67
2019-03-29T02:59:04.745Z,993.64
2019-03-29T03:00:04.532Z,993.64
2019-03-29T03:01:05.036Z,993.67
2019-03-29T03:02:05.373Z,993.75
2019-03-29T03:03:05.122Z,993.81
2019-03-29T03:04:05.206Z,993.81
2019-03-29T03:05:05.259Z,993.72
2019-03-29T03:06:04.919Z,993.70
2019-03-29T03:07:04.999Z,993.67
2019-03-29T03:08:05.158Z,993.75
2019-03-29T03:09:14.803Z,993.70
2019-03-29T03:10:04.679Z,993.64
2019-03-29T03:11:04.724Z,993.89
2019-03-29T03:12:04.961Z,993.78
2019-03-29T03:13:05.106Z,993.72
2019-03-29T03:14:04.575Z,993.75
2019-03-29T03:15:04.997Z,993.81
2019-03-29T03:16:05.293Z,993.75
2019-03-29T03:17:04.636Z,993.87
2019-03-29T03:18:05.161Z,993.72
2019-03-29T03:19:05.340Z,993.78
2019-03-29T03:20:05.467Z,993.72
2019-03-29T03:21:05.558Z,993.84
2019-03-29T03:22:04.970Z,993.81
2019-03-29T03:23:05.280Z,993.81
2019-03-29T03:24:04.713Z,993.75
2019-03-29T03:25:04.895Z,993.75
2019-03-29T03:26:05.349Z,993.78
2019-03-29T03:27:05.329Z,993.72
2019-03-29T03:28:05.533Z,993.67
2019-03-29T03:29:04.805Z,993.70
2019-03-29T03:30:04.908Z,993.75
2019-03-29T03:31:05.071Z,993.64
2019-03-29T03:32:05.114Z,993.73
2019-03-29T03:33:04.881Z,993.81
2019-03-29T03:34:05.121Z,993.73
2019-03-29T03:35:05.224Z,993.64
2019-03-29T03:36:05.493Z,993.78
2019-03-29T03:37:04.483Z,993.58
2019-03-29T03:38:04.671Z,993.81
2019-03-29T03:39:04.722Z,993.67
2019-03-29T03:40:04.936Z,993.61
2019-03-29T03:41:05.456Z,993.61
2019-03-29T03:42:04.516Z,993.78
2019-03-29T03:43:10.091Z,993.87
2019-03-29T03:44:04.637Z,993.64
2019-03-29T03:45:04.627Z,993.78
2019-03-29T03:46:04.731Z,993.67
2019-03-29T03:47:04.833Z,993.70
2019-03-29T03:48:04.509Z,993.61
2019-03-29T03:49:04.660Z,993.73
2019-03-29T03:50:04.748Z,993.53
2019-03-29T03:51:04.961Z,993.56
2019-03-29T03:52:05.452Z,993.78
2019-03-29T03:53:04.628Z,993.78
2019-03-29T03:54:04.882Z,993.81
2019-03-29T03:55:04.958Z,993.64
2019-03-29T03:56:04.818Z,993.67
2019-03-29T03:57:05.039Z,993.76
2019-03-29T03:58:04.584Z,993.73
2019-03-29T03:59:04.802Z,993.64
2019-03-29T04:00:04.868Z,993.61
2019-03-29T04:01:05.168Z,993.64
2019-03-29T04:02:04.700Z,993.61
2019-03-29T04:03:05.197Z,993.56
2019-03-29T04:04:05.303Z,993.64
2019-03-29T04:05:04.771Z,993.61
2019-03-29T04:06:05.188Z,993.56
2019-03-29T04:07:04.983Z,993.59
2019-03-29T04:08:05.040Z,993.53
2019-03-29T04:09:05.259Z,993.56
2019-03-29T04:10:04.706Z,993.47
2019-03-29T04:11:05.098Z,993.61
2019-03-29T04:12:04.651Z,993.50
2019-03-29T04:13:04.830Z,993.56
2019-03-29T04:14:05.083Z,993.42
2019-03-29T04:15:05.121Z,993.47
2019-03-29T04:16:05.419Z,993.53
2019-03-29T04:17:05.457Z,993.42
2019-03-29T04:18:04.989Z,993.39
2019-03-29T04:19:05.184Z,993.44
2019-03-29T04:20:05.555Z,993.39
2019-03-29T04:21:05.149Z,993.56
2019-03-29T04:22:05.159Z,993.39
2019-03-29T04:23:05.252Z,993.39
2019-03-29T04:24:05.527Z,993.36
2019-03-29T04:25:04.926Z,993.44
2019-03-29T04:26:04.543Z,993.50
2019-03-29T04:27:04.723Z,993.36
2019-03-29T04:28:04.891Z,993.39
2019-03-29T04:29:05.735Z,993.36
2019-03-29T04:30:05.718Z,993.30
2019-03-29T04:31:04.772Z,993.50
2019-03-29T04:32:04.857Z,993.42
2019-03-29T04:33:05.353Z,993.33
2019-03-29T04:34:04.773Z,993.33
2019-03-29T04:35:04.777Z,993.44
2019-03-29T04:36:04.965Z,993.36
2019-03-29T04:37:04.730Z,993.42
2019-03-29T04:38:04.869Z,993.30
2019-03-29T04:39:04.747Z,993.33
2019-03-29T04:40:09.032Z,993.36
2019-03-29T04:41:04.783Z,993.39
2019-03-29T04:42:04.871Z,993.27
2019-03-29T04:43:09.730Z,993.50
2019-03-29T04:44:05.138Z,993.36
2019-03-29T04:45:04.936Z,993.50
2019-03-29T04:46:05.087Z,993.39
2019-03-29T04:47:04.846Z,993.39
2019-03-29T04:48:04.902Z,993.50
2019-03-29T04:49:04.666Z,993.47
2019-03-29T04:50:04.716Z,993.50
2019-03-29T04:51:04.801Z,993.53
2019-03-29T04:52:05.093Z,993.50
2019-03-29T04:53:05.420Z,993.50
2019-03-29T04:54:04.610Z,993.47
2019-03-29T04:55:04.817Z,993.42
2019-03-29T04:56:05.249Z,993.39
2019-03-29T04:57:04.572Z,993.45
2019-03-29T04:58:04.813Z,993.47
2019-03-29T04:59:04.919Z,993.36
2019-03-29T05:00:04.498Z,993.50
2019-03-29T05:01:05.221Z,993.45
2019-03-29T05:02:05.453Z,993.47
2019-03-29T05:03:10.038Z,993.42
2019-03-29T05:04:05.512Z,993.45
2019-03-29T05:05:04.700Z,993.59
2019-03-29T05:06:04.907Z,993.39
2019-03-29T05:07:05.147Z,993.42
2019-03-29T05:08:05.199Z,993.53
2019-03-29T05:09:04.641Z,993.53
2019-03-29T05:10:04.760Z,993.47
2019-03-29T05:11:04.806Z,993.47
2019-03-29T05:12:05.359Z,993.67
2019-03-29T05:13:04.613Z,993.53
2019-03-29T05:14:04.661Z,993.50
2019-03-29T05:15:05.186Z,993.50
2019-03-29T05:16:05.230Z,993.56
2019-03-29T05:17:05.476Z,993.50
2019-03-29T05:18:04.850Z,993.53
2019-03-29T05:19:05.526Z,993.45
2019-03-29T05:20:04.504Z,993.50
2019-03-29T05:21:05.255Z,993.44
2019-03-29T05:22:05.566Z,993.44
2019-03-29T05:23:04.668Z,993.44
2019-03-29T05:24:04.729Z,993.44
2019-03-29T05:25:05.222Z,993.39
2019-03-29T05:26:04.708Z,993.39
2019-03-29T05:27:04.930Z,993.56
2019-03-29T05:28:05.136Z,993.47
2019-03-29T05:29:05.184Z,993.59
2019-03-29T05:30:05.388Z,993.53
2019-03-29T05:31:05.075Z,993.50
2019-03-29T05:32:05.354Z,993.39
2019-03-29T05:33:05.305Z,993.56
2019-03-29T05:34:05.017Z,993.42
2019-03-29T05:35:05.113Z,993.56
2019-03-29T05:36:04.675Z,993.59
2019-03-29T05:37:05.092Z,993.42
2019-03-29T05:38:08.037Z,993.56
2019-03-29T05:39:04.654Z,993.36
2019-03-29T05:40:05.228Z,993.56
2019-03-29T05:41:04.581Z,993.39
2019-03-29T05:42:04.731Z,993.50
2019-03-29T05:43:05.465Z,993.50
2019-03-29T05:44:05.213Z,993.44
2019-03-29T05:45:05.307Z,993.39
2019-03-29T05:46:04.915Z,993.39
2019-03-29T05:47:05.156Z,993.44
2019-03-29T05:48:05.415Z,993.56
2019-03-29T05:49:04.778Z,993.44
2019-03-29T05:50:04.970Z,993.44
2019-03-29T05:51:05.001Z,993.50
2019-03-29T05:52:04.680Z,993.47
2019-03-29T05:53:04.877Z,993.50
2019-03-29T05:54:10.093Z,993.44
2019-03-29T05:55:04.668Z,993.50
2019-03-29T05:56:05.055Z,993.70
2019-03-29T05:57:04.647Z,993.50
2019-03-29T05:58:04.679Z,993.61
2019-03-29T05:59:05.381Z,993.56
2019-03-29T06:00:05.489Z,993.50
2019-03-29T06:01:05.036Z,993.64
2019-03-29T06:02:05.554Z,993.53
2019-03-29T06:03:04.770Z,993.50
2019-03-29T06:04:04.929Z,993.50
2019-03-29T06:05:05.198Z,993.53
2019-03-29T06:06:05.493Z,993.64
2019-03-29T06:07:04.542Z,993.53
2019-03-29T06:08:05.092Z,993.55
2019-03-29T06:09:05.079Z,993.55
2019-03-29T06:10:05.191Z,993.61
2019-03-29T06:11:04.930Z,993.67
2019-03-29T06:12:05.190Z,993.53
2019-03-29T06:13:05.409Z,993.55
2019-03-29T06:14:05.038Z,993.67
2019-03-29T06:15:04.587Z,993.61
2019-03-29T06:16:06.563Z,993.55
2019-03-29T06:17:05.344Z,993.61
2019-03-29T06:18:05.418Z,993.64
2019-03-29T06:19:04.814Z,993.67
2019-03-29T06:20:05.129Z,993.75
2019-03-29T06:21:04.552Z,993.67
2019-03-29T06:22:04.714Z,993.64
2019-03-29T06:23:05.200Z,993.72
2019-03-29T06:24:05.336Z,993.67
2019-03-29T06:25:04.821Z,993.72
2019-03-29T06:26:05.415Z,993.64
2019-03-29T06:27:04.760Z,993.61
2019-03-29T06:28:05.507Z,993.61
2019-03-29T06:29:04.488Z,993.67
2019-03-29T06:30:05.071Z,993.70
2019-03-29T06:31:05.453Z,993.70
2019-03-29T06:32:05.809Z,993.72
2019-03-29T06:33:05.612Z,993.69
2019-03-29T06:34:05.119Z,993.64
2019-03-29T06:35:05.285Z,993.67
2019-03-29T06:36:05.474Z,993.69
2019-03-29T06:37:05.064Z,993.72
2019-03-29T06:38:05.343Z,993.75
2019-03-29T06:39:04.839Z,993.61
2019-03-29T06:40:05.399Z,993.75
2019-03-29T06:41:05.581Z,993.72
2019-03-29T06:42:05.105Z,993.75
2019-03-29T06:43:10.169Z,993.55
2019-03-29T06:44:04.921Z,993.72
2019-03-29T06:45:05.442Z,993.67
2019-03-29T06:46:05.611Z,993.64
2019-03-29T06:47:04.813Z,993.78
2019-03-29T06:48:04.964Z,993.66
2019-03-29T06:49:04.976Z,993.69
2019-03-29T06:50:05.209Z,993.66
2019-03-29T06:51:05.369Z,993.69
2019-03-29T06:52:05.449Z,993.61
2019-03-29T06:53:05.030Z,993.75
2019-03-29T06:54:05.070Z,993.69
2019-03-29T06:55:05.393Z,993.61
2019-03-29T06:56:04.583Z,993.58
2019-03-29T06:57:05.305Z,993.61
2019-03-29T06:58:05.306Z,993.63
2019-03-29T06:59:05.440Z,993.63
2019-03-29T07:00:05.217Z,993.52
2019-03-29T07:01:05.371Z,993.66
2019-03-29T07:02:04.864Z,993.66
2019-03-29T07:03:04.564Z,993.61
2019-03-29T07:04:04.934Z,993.52
2019-03-29T07:05:05.059Z,993.61
2019-03-29T07:06:04.804Z,993.58
2019-03-29T07:07:04.535Z,993.55
2019-03-29T07:08:05.155Z,993.66
2019-03-29T07:09:05.559Z,993.69
2019-03-29T07:10:04.983Z,993.69
2019-03-29T07:11:18.117Z,993.75
2019-03-29T07:12:04.945Z,993.60
2019-03-29T07:13:05.237Z,993.66
2019-03-29T07:14:05.437Z,993.66
2019-03-29T07:15:04.994Z,993.55
2019-03-29T07:16:05.159Z,993.66
2019-03-29T07:17:05.252Z,993.49
2019-03-29T07:18:05.344Z,993.52
2019-03-29T07:19:05.507Z,993.55
2019-03-29T07:20:05.341Z,993.57
2019-03-29T07:21:04.852Z,993.54
2019-03-29T07:22:05.217Z,993.57
2019-03-29T07:23:05.498Z,993.54
2019-03-29T07:24:04.813Z,993.49
2019-03-29T07:25:05.001Z,993.71
2019-03-29T07:26:05.056Z,993.60
2019-03-29T07:27:04.801Z,993.54
2019-03-29T07:28:04.955Z,993.60
2019-03-29T07:29:05.352Z,993.60
2019-03-29T07:30:05.105Z,993.46
2019-03-29T07:31:05.064Z,993.51
2019-03-29T07:32:05.316Z,993.57
2019-03-29T07:33:05.430Z,993.54
2019-03-29T07:34:05.355Z,993.60
2019-03-29T07:35:05.412Z,993.63
2019-03-29T07:36:04.537Z,993.66
2019-03-29T07:37:06.344Z,993.60
2019-03-29T07:38:05.041Z,993.71
2019-03-29T07:39:04.568Z,993.71
2019-03-29T07:40:05.124Z,993.54
2019-03-29T07:41:04.718Z,993.54
2019-03-29T07:42:04.825Z,993.48
2019-03-29T07:43:10.175Z,993.51
2019-03-29T07:44:05.399Z,993.60
2019-03-29T07:45:04.865Z,993.48
2019-03-29T07:46:05.161Z,993.65
2019-03-29T07:47:05.021Z,993.45
2019-03-29T07:48:05.642Z,993.48
2019-03-29T07:49:05.161Z,993.63
2019-03-29T07:50:05.267Z,993.60
2019-03-29T07:51:04.906Z,993.48
2019-03-29T07:52:05.558Z,993.48
2019-03-29T07:53:04.615Z,993.48
2019-03-29T07:54:04.977Z,993.54
2019-03-29T07:55:04.590Z,993.68
2019-03-29T07:56:04.817Z,993.57
2019-03-29T07:57:04.935Z,993.60
2019-03-29T07:58:04.586Z,993.51
2019-03-29T07:59:05.280Z,993.51
2019-03-29T08:00:05.440Z,993.59
2019-03-29T08:01:05.014Z,993.57
2019-03-29T08:02:05.159Z,993.51
2019-03-29T08:03:04.710Z,993.71
2019-03-29T08:04:05.030Z,993.59
2019-03-29T08:05:05.366Z,993.45
2019-03-29T08:06:05.410Z,993.54
2019-03-29T08:07:06.656Z,993.45
2019-03-29T08:08:05.538Z,993.59
2019-03-29T08:09:05.463Z,993.65
2019-03-29T08:10:04.694Z,993.71
2019-03-29T08:11:05.245Z,993.71
2019-03-29T08:12:04.482Z,993.62
2019-03-29T08:13:04.993Z,993.53
2019-03-29T08:14:05.270Z,993.51
2019-03-29T08:15:05.455Z,993.76
2019-03-29T08:16:07.052Z,993.70
2019-03-29T08:17:04.693Z,993.56
2019-03-29T08:18:05.205Z,993.56
2019-03-29T08:19:05.334Z,993.56
2019-03-29T08:20:41.888Z,993.50
2019-03-29T08:21:04.861Z,993.59
2019-03-29T08:22:04.959Z,993.53
2019-03-29T08:23:04.600Z,993.47
2019-03-29T08:24:04.573Z,993.53
2019-03-29T08:25:04.986Z,993.47
2019-03-29T08:26:05.145Z,993.47
2019-03-29T08:27:04.683Z,993.44
2019-03-29T08:28:04.628Z,993.30
2019-03-29T08:29:05.316Z,993.53
2019-03-29T08:30:04.694Z,993.53
2019-03-29T08:31:04.883Z,993.53
2019-03-29T08:32:05.118Z,993.53
2019-03-29T08:33:04.799Z,993.50
2019-03-29T08:34:05.322Z,993.56
2019-03-29T08:35:05.479Z,993.41
2019-03-29T08:36:05.115Z,993.58
2019-03-29T08:37:04.492Z,993.55
2019-03-29T08:38:06.673Z,993.50
2019-03-29T08:39:05.427Z,993.44
2019-03-29T08:40:04.692Z,993.47
2019-03-29T08:41:05.351Z,993.55
2019-03-29T08:42:05.450Z,993.52
2019-03-29T08:43:09.847Z,993.52
2019-03-29T08:44:05.346Z,993.61
2019-03-29T08:45:04.664Z,993.55
2019-03-29T08:46:04.786Z,993.47
2019-03-29T08:47:05.260Z,993.44
2019-03-29T08:48:07.209Z,993.44
2019-03-29T08:49:04.814Z,993.46
2019-03-29T08:50:05.057Z,993.41
2019-03-29T08:51:05.420Z,993.41
2019-03-29T08:52:04.699Z,993.49
2019-03-29T08:53:05.276Z,993.55
2019-03-29T08:54:05.726Z,993.55
2019-03-29T08:55:04.630Z,993.52
2019-03-29T08:56:04.804Z,993.46
2019-03-29T08:57:05.367Z,993.37
2019-03-29T08:58:05.458Z,993.43
2019-03-29T08:59:04.777Z,993.34
2019-03-29T09:00:04.791Z,993.34
2019-03-29T09:01:05.107Z,993.46
2019-03-29T09:02:05.553Z,993.32
2019-03-29T09:03:04.885Z,993.40
2019-03-29T09:04:06.425Z,993.29
2019-03-29T09:05:05.401Z,993.26
2019-03-29T09:06:05.012Z,993.29
2019-03-29T09:07:05.143Z,993.32
2019-03-29T09:08:05.256Z,993.37
2019-03-29T09:09:05.513Z,993.29
2019-03-29T09:10:04.716Z,993.26
2019-03-29T09:11:08.074Z,993.26
2019-03-29T09:12:15.010Z,993.43
2019-03-29T09:13:05.209Z,993.31
2019-03-29T09:14:04.879Z,993.31
2019-03-29T09:15:05.110Z,993.31
2019-03-29T09:16:04.779Z,993.43
2019-03-29T09:17:04.906Z,993.31
2019-03-29T09:18:04.986Z,993.34
2019-03-29T09:19:05.089Z,993.26
2019-03-29T09:20:05.212Z,993.43
2019-03-29T09:21:05.414Z,993.21
2019-03-29T09:22:05.526Z,993.26
2019-03-29T09:23:04.500Z,993.43
2019-03-29T09:24:04.866Z,993.31
2019-03-29T09:25:05.253Z,993.31
2019-03-29T09:26:05.281Z,993.37
2019-03-29T09:27:05.458Z,993.34
2019-03-29T09:28:05.554Z,993.34
2019-03-29T09:29:04.665Z,993.40
2019-03-29T09:30:05.729Z,993.31
2019-03-29T09:31:05.232Z,993.40
2019-03-29T09:32:05.252Z,993.24
2019-03-29T09:33:04.823Z,993.54
2019-03-29T09:34:05.211Z,993.34
2019-03-29T09:35:05.251Z,993.43
2019-03-29T09:36:05.628Z,993.34
2019-03-29T09:37:04.740Z,993.43
2019-03-29T09:38:05.131Z,993.37
2019-03-29T09:39:04.749Z,993.46
2019-03-29T09:40:04.899Z,993.43
2019-03-29T09:41:04.932Z,993.28
2019-03-29T09:42:05.449Z,993.31
2019-03-29T09:43:08.727Z,993.28
2019-03-29T09:44:05.616Z,993.34
2019-03-29T09:45:04.626Z,993.37
2019-03-29T09:46:04.977Z,993.40
2019-03-29T09:47:04.985Z,993.40
2019-03-29T09:48:05.169Z,993.34
2019-03-29T09:49:06.797Z,993.34
2019-03-29T09:50:05.493Z,993.37
2019-03-29T09:51:04.837Z,993.28
2019-03-29T09:52:05.053Z,993.40
2019-03-29T09:53:09.680Z,993.34
2019-03-29T09:54:04.824Z,993.31
2019-03-29T09:55:04.907Z,993.28
2019-03-29T09:56:05.119Z,993.31
2019-03-29T09:57:04.892Z,993.26
2019-03-29T09:58:04.969Z,993.28
2019-03-29T09:59:05.353Z,993.15
2019-03-29T10:00:23.420Z,993.28
2019-03-29T10:01:05.238Z,993.26
2019-03-29T10:02:05.284Z,993.26
2019-03-29T10:03:05.074Z,993.28
2019-03-29T10:04:04.736Z,993.21
2019-03-29T10:05:05.297Z,993.34
2019-03-29T10:06:05.448Z,993.34
2019-03-29T10:07:04.813Z,993.26
2019-03-29T10:08:05.525Z,993.26
2019-03-29T10:09:04.784Z,993.28
2019-03-29T10:10:05.037Z,993.26
2019-03-29T10:11:04.842Z,993.23
2019-03-29T10:12:05.002Z,993.26
2019-03-29T10:13:10.083Z,993.37
2019-03-29T10:14:04.852Z,993.34
2019-03-29T10:15:04.916Z,993.28
2019-03-29T10:16:05.026Z,993.34
2019-03-29T10:17:04.545Z,993.34
2019-03-29T10:18:05.575Z,993.28
2019-03-29T10:19:04.906Z,993.37
2019-03-29T10:20:05.197Z,993.26
2019-03-29T10:21:04.766Z,993.37
2019-03-29T10:22:05.082Z,993.18
2019-03-29T10:23:05.114Z,993.31
2019-03-29T10:24:05.119Z,993.23
2019-03-29T10:25:20.120Z,993.37
2019-03-29T10:26:04.932Z,993.18
2019-03-29T10:27:04.908Z,993.23
2019-03-29T10:28:05.675Z,993.34
2019-03-29T10:29:04.682Z,993.17
2019-03-29T10:30:04.851Z,993.23
2019-03-29T10:31:05.156Z,993.36
2019-03-29T10:32:09.602Z,993.14
2019-03-29T10:33:05.467Z,993.23
2019-03-29T10:34:05.172Z,993.12
2019-03-29T10:35:05.088Z,993.20
2019-03-29T10:36:05.472Z,993.14
2019-03-29T10:37:04.613Z,993.26
2019-03-29T10:38:04.945Z,993.12
2019-03-29T10:39:05.101Z,993.31
2019-03-29T10:40:05.145Z,993.06
2019-03-29T10:41:05.485Z,993.14
2019-03-29T10:42:04.580Z,992.97
2019-03-29T10:43:05.199Z,993.11
2019-03-29T10:44:05.169Z,993.06
2019-03-29T10:45:05.252Z,993.08
2019-03-29T10:46:04.529Z,993.11
2019-03-29T10:47:04.933Z,992.91
2019-03-29T10:48:04.837Z,993.05
2019-03-29T10:49:05.326Z,993.17
2019-03-29T10:50:04.538Z,992.97
2019-03-29T10:51:08.668Z,993.08
2019-03-29T10:52:05.430Z,993.11
2019-03-29T10:53:05.629Z,992.91
2019-03-29T10:54:04.667Z,992.97
2019-03-29T10:55:04.714Z,992.99
2019-03-29T10:56:05.368Z,992.94
2019-03-29T10:57:04.554Z,992.99
2019-03-29T10:58:04.782Z,992.94
2019-03-29T10:59:04.758Z,992.89
2019-03-29T11:00:04.989Z,992.89
2019-03-29T11:01:10.564Z,992.83
2019-03-29T11:02:05.028Z,992.89
2019-03-29T11:03:04.670Z,992.89
2019-03-29T11:04:04.854Z,992.96
2019-03-29T11:05:05.385Z,993.05
2019-03-29T11:06:04.853Z,992.83
2019-03-29T11:07:05.328Z,992.91
2019-03-29T11:08:05.528Z,992.89
2019-03-29T11:09:05.109Z,992.93
2019-03-29T11:10:04.739Z,992.93
2019-03-29T11:11:05.097Z,992.89
2019-03-29T11:12:05.447Z,992.72
2019-03-29T11:13:14.062Z,992.74
2019-03-29T11:14:05.063Z,992.80
2019-03-29T11:15:07.233Z,992.80
2019-03-29T11:16:05.361Z,992.69
2019-03-29T11:17:04.765Z,992.66
2019-03-29T11:18:04.896Z,992.71
2019-03-29T11:19:05.005Z,992.63
2019-03-29T11:20:06.770Z,992.80
2019-03-29T11:21:04.655Z,992.74
2019-03-29T11:22:05.158Z,992.74
2019-03-29T11:23:05.503Z,992.63
2019-03-29T11:24:09.591Z,992.69
2019-03-29T11:25:05.328Z,992.68
2019-03-29T11:26:04.672Z,992.80
2019-03-29T11:27:05.322Z,992.80
2019-03-29T11:28:05.393Z,992.71
2019-03-29T11:29:04.620Z,992.63
2019-03-29T11:30:06.404Z,992.68
2019-03-29T11:31:05.305Z,992.74
2019-03-29T11:32:05.196Z,992.68
2019-03-29T11:33:04.838Z,992.77
2019-03-29T11:34:05.187Z,992.71
2019-03-29T11:35:05.022Z,992.65
2019-03-29T11:36:05.420Z,992.71
2019-03-29T11:37:04.699Z,992.54
2019-03-29T11:38:05.434Z,992.57
2019-03-29T11:39:05.027Z,992.57
2019-03-29T11:40:05.683Z,992.54
2019-03-29T11:41:05.516Z,992.48
2019-03-29T11:42:04.534Z,992.54
2019-03-29T11:43:09.970Z,992.48
2019-03-29T11:44:05.597Z,992.48
2019-03-29T11:45:04.976Z,992.54
2019-03-29T11:46:05.242Z,992.45
2019-03-29T11:47:05.384Z,992.48
2019-03-29T11:48:09.816Z,992.51
2019-03-29T11:49:04.522Z,992.45
2019-03-29T11:50:05.001Z,992.37
2019-03-29T11:51:19.833Z,992.48
2019-03-29T11:52:04.803Z,992.40
2019-03-29T11:53:05.317Z,992.45
2019-03-29T11:54:04.710Z,992.34
2019-03-29T11:55:04.941Z,992.31
2019-03-29T11:56:05.305Z,992.37
2019-03-29T11:57:04.666Z,992.22
2019-03-29T11:58:05.760Z,992.39
2019-03-29T11:59:05.430Z,992.34
2019-03-29T12:00:05.044Z,992.31
2019-03-29T12:01:06.021Z,992.19
2019-03-29T12:02:04.669Z,992.19
2019-03-29T12:03:07.202Z,992.22
2019-03-29T12:04:04.565Z,992.28
2019-03-29T12:05:04.820Z,992.22
2019-03-29T12:06:04.719Z,992.33
2019-03-29T12:07:04.715Z,992.25
2019-03-29T12:08:05.167Z,992.13
2019-03-29T12:09:05.348Z,992.25
2019-03-29T12:10:04.926Z,992.10
2019-03-29T12:11:05.440Z,992.13
2019-03-29T12:12:05.003Z,992.16
2019-03-29T12:13:05.267Z,992.07
2019-03-29T12:14:05.470Z,991.96
2019-03-29T12:15:05.047Z,992.07
2019-03-29T12:16:05.143Z,992.13
2019-03-29T12:17:05.549Z,992.16
2019-03-29T12:18:04.976Z,991.99
2019-03-29T12:19:05.243Z,992.10
2019-03-29T12:20:05.018Z,992.01
2019-03-29T12:21:04.765Z,992.04
2019-03-29T12:22:04.833Z,992.07
2019-03-29T12:23:05.514Z,992.07
2019-03-29T12:24:04.708Z,992.01
2019-03-29T12:25:04.953Z,992.04
2019-03-29T12:26:05.094Z,991.98
2019-03-29T12:27:04.637Z,991.95
2019-03-29T12:28:04.637Z,991.95